createdAt,value
2018-05-02T00:04:30.841Z,51.70
2018-05-02T00:10:34.392Z,51.70
2018-05-02T00:16:37.774Z,51.90
2018-05-02T00:22:41.956Z,52.00
2018-05-02T00:28:45.410Z,51.90
2018-05-02T00:34:48.846Z,52.20
2018-05-02T00:40:52.300Z,54.00
2018-05-02T00:46:55.752Z,53.10
2018-05-02T00:52:59.195Z,54.10
2018-05-02T00:59:03.399Z,53.30
2018-05-02T01:05:06.828Z,53.30
2018-05-02T01:11:10.291Z,53.00
2018-05-02T01:17:13.689Z,53.00
2018-05-02T01:23:17.351Z,52.90
2018-05-02T01:29:20.821Z,53.20
2018-05-02T01:35:24.352Z,53.30
2018-05-02T01:41:28.624Z,53.80
2018-05-02T01:47:32.756Z,53.70
2018-05-02T01:53:36.160Z,53.70
2018-05-02T01:59:40.410Z,53.50
2018-05-02T02:05:44.592Z,53.50
2018-05-02T02:11:48.843Z,53.50
2018-05-02T02:17:52.976Z,52.80
2018-05-02T02:23:56.348Z,53.30
2018-05-02T02:29:59.731Z,53.20
2018-05-02T02:36:03.258Z,53.30
2018-05-02T02:42:07.491Z,52.50
2018-05-02T02:48:11.073Z,52.50
2018-05-02T02:54:14.633Z,52.60
2018-05-02T03:00:18.753Z,53.70
2018-05-02T03:06:22.148Z,53.40
2018-05-02T03:12:25.701Z,53.20
2018-05-02T03:18:29.887Z,52.50
2018-05-02T03:24:34.055Z,51.70
2018-05-02T03:30:37.589Z,51.60
2018-05-02T03:36:41.857Z,49.20
2018-05-02T03:42:45.381Z,49.10
2018-05-02T03:48:48.868Z,48.50
2018-05-02T03:54:53.126Z,47.60
2018-05-02T04:01:14.423Z,47.60
2018-05-02T04:07:17.868Z,47.30
2018-05-02T04:13:22.130Z,48.20
2018-05-02T04:19:26.229Z,48.60
2018-05-02T04:25:29.605Z,48.40
2018-05-02T04:31:33.000Z,48.50
2018-05-02T04:37:36.428Z,48.40
2018-05-02T04:43:39.879Z,48.60
2018-05-02T04:49:43.429Z,48.60
2018-05-02T04:55:46.981Z,48.60
2018-05-02T05:01:50.447Z,48.40
2018-05-02T05:07:54.700Z,48.10
2018-05-02T05:13:58.167Z,48.00
2018-05-02T05:20:02.282Z,47.80
2018-05-02T05:26:05.654Z,47.80
2018-05-02T05:32:09.118Z,47.70
2018-05-02T05:38:13.301Z,47.80
2018-05-02T05:44:17.555Z,47.70
2018-05-02T05:50:21.676Z,47.70
2018-05-02T05:56:25.105Z,47.60
2018-05-02T06:02:28.611Z,47.50
2018-05-02T06:08:31.977Z,47.40
2018-05-02T06:14:36.238Z,47.60
2018-05-02T06:20:40.506Z,46.90
2018-05-02T06:26:43.940Z,46.90
2018-05-02T06:32:47.421Z,46.20
2018-05-02T06:38:51.585Z,45.20
2018-05-02T06:44:55.762Z,46.40
2018-05-02T06:50:59.215Z,46.40
2018-05-02T06:57:02.590Z,46.70
2018-05-02T07:03:06.090Z,46.70
2018-05-02T07:09:10.280Z,46.00
2018-05-02T07:15:13.726Z,45.30
2018-05-02T07:21:17.894Z,45.10
2018-05-02T07:27:22.111Z,45.00
2018-05-02T07:33:25.501Z,45.00
2018-05-02T07:39:29.763Z,43.90
2018-05-02T07:45:33.128Z,43.70
2018-05-02T07:51:37.360Z,42.90
2018-05-02T07:57:42.341Z,42.90
2018-05-02T08:03:45.730Z,42.90
2018-05-02T08:09:49.980Z,41.60
2018-05-02T08:15:54.510Z,42.40
2018-05-02T08:21:57.985Z,42.10
2018-05-02T08:28:01.456Z,42.00
2018-05-02T08:34:05.018Z,41.80
2018-05-02T08:40:09.172Z,41.50
2018-05-02T08:46:13.315Z,40.70
2018-05-02T08:52:16.794Z,40.70
2018-05-02T08:58:20.170Z,40.00
2018-05-02T09:04:23.542Z,39.80
2018-05-02T09:10:26.947Z,40.30
2018-05-02T09:16:31.135Z,40.70
2018-05-02T09:22:34.652Z,40.50
2018-05-02T09:28:38.776Z,41.10
2018-05-02T09:34:42.188Z,41.00
2018-05-02T09:40:45.642Z,40.50
2018-05-02T09:46:49.167Z,40.60
2018-05-02T09:52:52.719Z,41.40
2018-05-02T09:58:56.378Z,41.50
2018-05-02T10:05:00.607Z,41.20
2018-05-02T10:11:04.205Z,41.20
2018-05-02T10:17:08.385Z,40.10
2018-05-02T10:23:11.914Z,39.90
2018-05-02T10:29:15.286Z,40.40
2018-05-02T10:35:18.667Z,41.20
2018-05-02T10:41:22.164Z,40.50
2018-05-02T10:47:26.331Z,41.40
2018-05-02T10:53:30.607Z,41.40
2018-05-02T10:59:35.289Z,40.40
2018-05-02T11:05:39.462Z,40.00
2018-05-02T11:11:43.614Z,41.20
2018-05-02T11:17:47.799Z,42.30
2018-05-02T11:23:52.051Z,41.20
2018-05-02T11:29:56.347Z,41.30
2018-05-02T11:35:59.770Z,41.20
2018-05-02T11:42:04.038Z,41.20
2018-05-02T11:48:08.265Z,41.30
2018-05-02T11:54:11.734Z,41.20
2018-05-02T12:00:15.108Z,41.20
2018-05-02T12:06:18.663Z,40.80
2018-05-02T12:12:22.898Z,41.30
2018-05-02T12:18:26.392Z,40.70
2018-05-02T12:24:30.652Z,41.50
2018-05-02T12:30:34.854Z,41.40
2018-05-02T12:36:38.803Z,41.40
2018-05-02T12:42:42.256Z,41.50
2018-05-02T12:48:45.708Z,41.60
2018-05-02T12:54:49.152Z,41.20
2018-05-02T13:00:53.343Z,40.20
2018-05-02T13:06:56.807Z,40.30
2018-05-02T13:13:01.016Z,40.30
2018-05-02T13:19:05.202Z,40.30
2018-05-02T13:25:09.373Z,40.00
2018-05-02T13:31:13.622Z,40.20
2018-05-02T13:37:18.122Z,40.70
2018-05-02T13:43:21.753Z,40.00
2018-05-02T13:49:25.938Z,39.80
2018-05-02T13:55:30.179Z,40.60
2018-05-02T14:01:33.563Z,40.50
2018-05-02T14:07:37.008Z,40.50
2018-05-02T14:13:41.154Z,40.40
2018-05-02T14:19:44.636Z,40.30
2018-05-02T14:25:48.070Z,40.20
2018-05-02T14:31:52.297Z,40.10
2018-05-02T14:37:55.787Z,40.00
2018-05-02T14:43:59.520Z,40.70
2018-05-02T14:50:04.210Z,41.00
2018-05-02T14:56:08.128Z,40.80
2018-05-02T15:02:11.672Z,41.10
2018-05-02T15:08:15.154Z,40.70
2018-05-02T15:14:18.541Z,40.50
2018-05-02T15:20:22.095Z,40.60
2018-05-02T15:26:25.953Z,40.80
2018-05-02T15:32:31.820Z,40.80
2018-05-02T15:38:35.654Z,40.70
2018-05-02T15:44:39.043Z,40.80
2018-05-02T15:50:42.452Z,40.80
2018-05-02T15:56:45.844Z,41.00
2018-05-02T16:02:49.330Z,41.10
2018-05-02T16:08:52.736Z,40.30
2018-05-02T16:14:56.236Z,40.00
2018-05-02T16:21:00.422Z,40.60
2018-05-02T16:27:04.659Z,41.70
2018-05-02T16:33:08.176Z,41.70
2018-05-02T16:39:11.681Z,42.10
2018-05-02T16:45:15.856Z,43.90
2018-05-02T16:51:20.012Z,43.90
2018-05-02T16:57:24.279Z,44.40
2018-05-02T17:03:27.935Z,44.40
2018-05-02T17:09:31.498Z,43.80
2018-05-02T17:15:35.676Z,43.80
2018-05-02T17:21:39.853Z,43.40
2018-05-02T17:27:44.022Z,43.60
2018-05-02T17:33:47.429Z,43.40
2018-05-02T17:39:50.925Z,43.50
2018-05-02T17:45:54.383Z,43.60
2018-05-02T17:51:57.773Z,43.40
2018-05-02T17:58:01.364Z,43.50
2018-05-02T18:04:05.550Z,43.70
2018-05-02T18:10:09.048Z,43.60
2018-05-02T18:16:12.551Z,43.80
2018-05-02T18:22:15.862Z,43.90
2018-05-02T18:28:19.237Z,43.80
2018-05-02T18:34:23.493Z,44.00
2018-05-02T18:40:27.762Z,44.30
2018-05-02T18:46:32.030Z,44.20
2018-05-02T18:52:36.227Z,44.70
2018-05-02T18:58:39.700Z,44.10
2018-05-02T19:04:43.119Z,44.30
2018-05-02T19:10:46.576Z,44.20
2018-05-02T19:16:49.953Z,44.30
2018-05-02T19:22:53.338Z,44.30
2018-05-02T19:28:56.814Z,44.30
2018-05-02T19:35:01.067Z,44.30
2018-05-02T19:41:10.991Z,44.90
2018-05-02T19:47:14.520Z,44.20
2018-05-02T19:53:17.988Z,44.30
2018-05-02T19:59:21.486Z,44.20
2018-05-02T20:05:24.875Z,44.40
2018-05-02T20:11:34.603Z,44.00
2018-05-02T20:17:38.052Z,44.40
2018-05-02T20:23:41.475Z,44.60
2018-05-02T20:29:44.901Z,44.60
2018-05-02T20:35:48.290Z,44.60
2018-05-02T20:41:52.445Z,44.60
2018-05-02T20:47:56.634Z,44.60
2018-05-02T20:54:00.081Z,45.10
2018-05-02T21:00:03.461Z,44.50
2018-05-02T21:06:06.860Z,44.50
2018-05-02T21:12:11.259Z,44.60
2018-05-02T21:18:14.642Z,44.50
2018-05-02T21:24:18.043Z,44.40
2018-05-02T21:30:22.204Z,44.50
2018-05-02T21:36:26.396Z,44.50
2018-05-02T21:42:29.930Z,44.50
2018-05-02T21:48:33.464Z,45.10
2018-05-02T21:54:36.923Z,44.80
2018-05-02T22:00:41.089Z,44.80
2018-05-02T22:06:45.218Z,44.90
2018-05-02T22:12:48.605Z,44.80
2018-05-02T22:18:52.166Z,44.90
2018-05-02T22:24:56.424Z,44.90
2018-05-02T22:31:00.607Z,45.10
2018-05-02T22:37:04.120Z,45.10
2018-05-02T22:43:07.611Z,45.10
2018-05-02T22:49:11.217Z,45.10
2018-05-02T22:55:14.695Z,45.10
2018-05-02T23:01:18.879Z,45.20
2018-05-02T23:07:22.410Z,45.10
2018-05-02T23:13:26.542Z,45.10
2018-05-02T23:19:30.036Z,45.10
2018-05-02T23:25:34.298Z,45.10
2018-05-02T23:31:37.731Z,45.10
2018-05-02T23:37:41.120Z,45.10
2018-05-02T23:43:44.569Z,45.10
2018-05-02T23:49:47.946Z,45.00
2018-05-02T23:55:51.382Z,45.10
